createdAt,value
2019-05-14T00:00:08.629Z,103065.89
2019-05-14T00:02:41.334Z,103061.88
2019-05-14T00:05:12.365Z,103064.09
2019-05-14T00:07:43.634Z,103064.97
2019-05-14T00:10:14.658Z,103060.04
2019-05-14T00:12:45.751Z,103061.81
2019-05-14T00:15:16.715Z,103050.22
2019-05-14T00:17:47.685Z,103052.41
2019-05-14T00:20:18.668Z,103052.42
2019-05-14T00:22:52.010Z,103048.39
2019-05-14T00:25:22.379Z,103047.97
2019-05-14T00:27:53.349Z,103052.41
2019-05-14T00:30:24.330Z,103047.92
2019-05-14T00:32:55.470Z,103041.23
2019-05-14T00:35:26.497Z,103047.91
2019-05-14T00:37:58.013Z,103047.00
2019-05-14T00:40:31.337Z,103046.58
2019-05-14T00:43:02.772Z,103055.93
2019-05-14T00:45:33.844Z,103053.20
2019-05-14T00:48:05.484Z,103059.81
2019-05-14T00:50:36.479Z,103059.39
2019-05-14T00:53:07.382Z,103058.03
2019-05-14T00:55:38.370Z,103064.73
2019-05-14T00:58:11.240Z,103056.70
2019-05-14T01:00:42.467Z,103056.70
2019-05-14T01:03:13.576Z,103053.56
2019-05-14T01:05:44.500Z,103048.67
2019-05-14T01:08:15.418Z,103051.75
2019-05-14T01:10:47.208Z,103051.31
2019-05-14T01:13:18.137Z,103052.59
2019-05-14T01:15:49.061Z,103049.05
2019-05-14T01:18:21.958Z,103046.80
2019-05-14T01:20:52.576Z,103036.51
2019-05-14T01:23:23.550Z,103034.29
2019-05-14T01:25:54.611Z,103034.29
2019-05-14T01:28:32.692Z,103032.03
2019-05-14T01:31:06.109Z,103027.14
2019-05-14T01:33:37.065Z,103023.12
2019-05-14T01:36:08.050Z,103025.37
2019-05-14T01:38:39.170Z,103026.21
2019-05-14T01:41:11.809Z,103020.38
2019-05-14T01:43:42.918Z,103014.59
2019-05-14T01:46:13.870Z,103021.27
2019-05-14T01:48:44.926Z,103012.30
2019-05-14T01:51:15.734Z,103013.16
2019-05-14T01:53:46.881Z,103018.03
2019-05-14T01:56:17.909Z,103011.34
2019-05-14T01:58:48.918Z,103003.30
2019-05-14T02:01:21.863Z,103000.59
2019-05-14T02:03:52.596Z,102993.91
2019-05-14T02:06:23.427Z,102992.10
2019-05-14T02:08:54.503Z,102985.41
2019-05-14T02:11:25.472Z,102987.17
2019-05-14T02:13:56.486Z,102981.83
2019-05-14T02:16:27.492Z,102985.78
2019-05-14T02:18:58.504Z,102980.84
2019-05-14T02:21:31.625Z,102978.54
2019-05-14T02:24:02.666Z,102977.14
2019-05-14T02:26:33.930Z,102970.47
2019-05-14T02:29:12.282Z,102970.47
2019-05-14T02:31:42.634Z,102969.59
2019-05-14T02:34:13.555Z,102967.33
2019-05-14T02:36:44.458Z,102965.06
2019-05-14T02:39:19.652Z,102965.09
2019-05-14T02:41:50.138Z,102960.65
2019-05-14T02:44:21.027Z,102958.36
2019-05-14T02:46:52.008Z,102963.63
2019-05-14T02:49:23.003Z,102961.33
2019-05-14T02:51:53.962Z,102963.46
2019-05-14T02:54:24.978Z,102966.98
2019-05-14T02:56:55.813Z,102969.19
2019-05-14T02:59:30.193Z,102960.25
2019-05-14T03:01:59.582Z,102964.72
2019-05-14T03:04:30.458Z,102959.36
2019-05-14T03:07:01.480Z,102967.84
2019-05-14T03:09:32.345Z,102973.62
2019-05-14T03:12:04.623Z,102976.75
2019-05-14T03:14:39.270Z,102982.99
2019-05-14T03:17:10.537Z,102986.48
2019-05-14T03:19:41.918Z,102986.94
2019-05-14T03:22:12.930Z,102985.61
2019-05-14T03:24:43.821Z,102989.20
2019-05-14T03:27:14.667Z,102984.25
2019-05-14T03:29:49.562Z,102990.03
2019-05-14T03:32:22.448Z,102989.98
2019-05-14T03:34:53.183Z,102985.11
2019-05-14T03:37:24.605Z,102976.64
2019-05-14T03:39:56.002Z,102973.08
2019-05-14T03:42:29.253Z,102967.76
2019-05-14T03:44:59.970Z,102967.38
2019-05-14T03:47:31.267Z,102973.16
2019-05-14T03:50:02.295Z,102979.00
2019-05-14T03:52:33.309Z,102979.02
2019-05-14T03:55:04.994Z,102972.34
2019-05-14T03:57:39.818Z,102972.37
2019-05-14T04:00:10.819Z,102979.42
2019-05-14T04:02:41.831Z,102974.03
2019-05-14T04:05:12.717Z,102973.58
2019-05-14T04:07:43.790Z,102973.19
2019-05-14T04:10:14.789Z,102968.28
2019-05-14T04:12:49.165Z,102966.95
2019-05-14T04:15:19.317Z,102966.53
2019-05-14T04:17:52.831Z,102972.29
2019-05-14T04:20:25.222Z,102968.77
2019-05-14T04:22:56.347Z,102965.20
2019-05-14T04:30:29.049Z,102965.72
2019-05-14T04:33:00.326Z,102962.61
2019-05-14T04:38:04.087Z,102958.55
2019-05-14T04:45:43.853Z,102956.37
2019-05-14T04:50:49.464Z,102954.25
2019-05-14T04:53:19.716Z,102954.75
2019-05-14T04:58:22.311Z,102949.92
2019-05-14T05:03:24.063Z,102955.72
2019-05-14T05:08:29.999Z,102955.34
2019-05-14T05:13:29.592Z,102956.27
2019-05-14T05:21:00.084Z,102962.17
2019-05-14T05:23:33.132Z,102963.95
2019-05-14T05:26:21.151Z,102962.70
2019-05-14T05:29:05.663Z,102957.81
2019-05-14T05:33:58.187Z,102946.31
2019-05-14T05:38:59.263Z,102941.87
2019-05-14T05:43:59.739Z,102938.38
2019-05-14T05:48:59.896Z,102943.30
2019-05-14T05:51:32.361Z,102944.20
2019-05-14T05:54:22.255Z,102940.22
2019-05-14T06:00:18.932Z,102935.91
2019-05-14T06:05:19.260Z,102934.59
2019-05-14T06:07:50.187Z,102939.52
2019-05-14T06:10:25.412Z,102927.91
2019-05-14T06:12:58.534Z,102926.13
2019-05-14T06:15:44.635Z,102922.95
2019-05-14T06:18:15.138Z,102930.07
2019-05-14T06:20:39.717Z,102926.90
2019-05-14T06:23:10.759Z,102929.20
2019-05-14T06:25:42.225Z,102926.47
2019-05-14T06:28:13.753Z,102921.41
2019-05-14T06:30:45.409Z,102916.34
2019-05-14T06:33:19.409Z,102912.12
2019-05-14T06:35:49.338Z,102906.59
2019-05-14T06:38:20.385Z,102908.13
2019-05-14T06:40:51.418Z,102911.00
2019-05-14T06:43:22.561Z,102911.73
2019-05-14T06:45:53.977Z,102912.22
2019-05-14T06:48:30.258Z,102900.31
2019-05-14T06:50:58.387Z,102896.29
2019-05-14T06:53:29.712Z,102893.12
2019-05-14T06:56:00.854Z,102899.59
2019-05-14T06:58:32.094Z,102892.27
2019-05-14T07:01:12.472Z,102895.06
2019-05-14T07:03:40.221Z,102904.31
2019-05-14T07:06:11.242Z,102899.39
2019-05-14T07:08:42.344Z,102890.80
2019-05-14T07:11:13.501Z,102896.32
2019-05-14T07:13:44.820Z,102897.00
2019-05-14T07:16:16.521Z,102891.86
2019-05-14T07:18:52.801Z,102890.54
2019-05-14T07:21:21.153Z,102884.41
2019-05-14T07:23:52.139Z,102888.62
2019-05-14T07:26:23.213Z,102886.24
2019-05-14T07:28:54.069Z,102890.38
2019-05-14T07:31:25.156Z,102878.75
2019-05-14T07:33:58.253Z,102881.00
2019-05-14T07:39:00.293Z,102876.34
2019-05-14T07:41:31.152Z,102879.76
2019-05-14T07:44:02.185Z,102885.61
2019-05-14T07:46:33.284Z,102874.78
2019-05-14T07:51:33.409Z,102866.53
2019-05-14T07:54:04.790Z,102867.92
2019-05-14T07:56:38.255Z,102859.41
2019-05-14T07:59:08.923Z,102861.63
2019-05-14T08:01:39.346Z,102856.84
2019-05-14T08:04:12.233Z,102856.53
2019-05-14T08:06:43.370Z,102867.83
2019-05-14T08:09:14.453Z,102861.69
2019-05-14T08:11:48.009Z,102860.89
2019-05-14T08:14:18.795Z,102859.98
2019-05-14T08:16:50.443Z,102855.45
2019-05-14T08:19:26.239Z,102849.22
2019-05-14T08:21:54.357Z,102846.72
2019-05-14T08:26:57.813Z,102842.70
2019-05-14T08:29:29.294Z,102841.89
2019-05-14T08:32:03.373Z,102839.80
2019-05-14T08:39:48.838Z,102853.50
2019-05-14T08:42:20.270Z,102850.43
2019-05-14T08:44:51.766Z,102850.50
2019-05-14T08:47:22.902Z,102844.41
2019-05-14T08:49:53.865Z,102839.68
2019-05-14T08:52:24.939Z,102836.02
2019-05-14T08:55:07.169Z,102830.20
2019-05-14T08:57:29.323Z,102816.91
2019-05-14T09:00:00.631Z,102809.06
2019-05-14T09:02:32.038Z,102814.91
2019-05-14T09:05:04.710Z,102804.71
2019-05-14T09:07:38.204Z,102795.80
2019-05-14T09:10:08.842Z,102781.75
2019-05-14T09:12:40.197Z,102789.50
2019-05-14T09:15:11.285Z,102789.30
2019-05-14T09:17:42.411Z,102779.72
2019-05-14T09:20:13.669Z,102777.28
2019-05-14T09:22:44.780Z,102781.23
2019-05-14T09:25:18.736Z,102783.57
2019-05-14T09:27:50.820Z,102788.58
2019-05-14T09:30:20.097Z,102788.87
2019-05-14T09:32:51.436Z,102779.30
2019-05-14T09:35:22.939Z,102775.81
2019-05-14T09:37:53.903Z,102776.91
2019-05-14T09:40:25.069Z,102775.94
2019-05-14T09:42:58.730Z,102771.11
2019-05-14T09:45:28.889Z,102771.39
2019-05-14T09:47:59.958Z,102771.85
2019-05-14T09:50:30.911Z,102763.84
2019-05-14T09:53:01.928Z,102767.38
2019-05-14T09:55:32.974Z,102762.44
2019-05-14T09:58:04.001Z,102756.25
2019-05-14T10:00:39.083Z,102760.57
2019-05-14T10:03:10.683Z,102767.45
2019-05-14T10:05:41.826Z,102761.63
2019-05-14T10:08:12.810Z,102762.93
2019-05-14T10:10:43.888Z,102768.81
2019-05-14T10:13:14.813Z,102768.30
2019-05-14T10:15:45.772Z,102770.41
2019-05-14T10:18:18.865Z,102765.44
2019-05-14T10:20:49.944Z,102777.20
2019-05-14T10:23:21.459Z,102770.56
2019-05-14T10:25:53.101Z,102763.55
2019-05-14T10:28:28.826Z,102756.50
2019-05-14T10:31:03.616Z,102755.00
2019-05-14T10:33:34.022Z,102760.92
2019-05-14T10:36:06.324Z,102754.36
2019-05-14T10:38:38.790Z,102741.73
2019-05-14T10:41:10.229Z,102739.36
2019-05-14T10:43:41.230Z,102735.20
2019-05-14T10:46:12.393Z,102724.34
2019-05-14T10:48:43.405Z,102721.09
2019-05-14T10:51:14.449Z,102725.28
2019-05-14T10:53:48.506Z,102722.88
2019-05-14T10:56:19.227Z,102719.15
2019-05-14T10:58:50.895Z,102708.59
2019-05-14T11:01:22.941Z,102708.81
2019-05-14T11:03:54.832Z,102696.94
2019-05-14T11:06:26.065Z,102701.15
2019-05-14T11:08:57.771Z,102697.96
2019-05-14T11:11:29.174Z,102687.45
2019-05-14T11:14:03.573Z,102687.22
2019-05-14T11:16:34.702Z,102688.96
2019-05-14T11:19:09.082Z,102678.95
2019-05-14T11:21:39.353Z,102672.05
2019-05-14T11:24:10.514Z,102669.67
2019-05-14T11:26:49.065Z,102659.77
2019-05-14T11:29:20.101Z,102664.68
2019-05-14T11:31:51.137Z,102659.72
2019-05-14T11:34:22.145Z,102660.84
2019-05-14T11:36:53.185Z,102654.62
2019-05-14T11:39:28.835Z,102657.42
2019-05-14T11:42:00.260Z,102655.12
2019-05-14T11:44:31.272Z,102646.50
2019-05-14T11:47:02.815Z,102641.81
2019-05-14T11:49:33.957Z,102642.83
2019-05-14T11:52:10.482Z,102635.22
2019-05-14T11:54:40.912Z,102625.92
2019-05-14T11:57:12.045Z,102622.64
2019-05-14T11:59:43.061Z,102622.39
2019-05-14T12:02:14.064Z,102621.58
2019-05-14T12:04:45.145Z,102617.67
2019-05-14T12:07:18.488Z,102605.31
2019-05-14T12:09:48.962Z,102608.92
2019-05-14T12:12:20.038Z,102603.97
2019-05-14T12:14:50.966Z,102614.33
2019-05-14T12:17:22.157Z,102608.63
2019-05-14T12:19:53.328Z,102594.65
2019-05-14T12:22:24.383Z,102600.14
2019-05-14T12:24:55.398Z,102593.63
2019-05-14T12:27:30.108Z,102584.47
2019-05-14T12:30:09.786Z,102585.23
2019-05-14T12:32:41.700Z,102593.55
2019-05-14T12:35:12.747Z,102587.27
2019-05-14T12:37:43.851Z,102593.52
2019-05-14T12:40:15.141Z,102586.25
2019-05-14T12:52:42.153Z,102581.43
2019-05-14T13:00:20.719Z,102574.09
2019-05-14T13:05:22.909Z,102564.12
2019-05-14T13:10:23.320Z,102555.99
2019-05-14T13:12:55.533Z,102551.59
2019-05-14T13:15:28.701Z,102541.78
2019-05-14T13:18:02.615Z,102533.34
2019-05-14T13:20:35.483Z,102539.41
2019-05-14T13:25:38.503Z,102532.38
2019-05-14T13:28:09.973Z,102533.80
2019-05-14T13:30:54.421Z,102532.45
2019-05-14T13:33:25.356Z,102519.66
2019-05-14T13:35:59.131Z,102523.28
2019-05-14T13:38:29.445Z,102516.72
2019-05-14T13:41:01.999Z,102507.61
2019-05-14T13:43:33.879Z,102503.11
2019-05-14T13:46:09.713Z,102506.88
2019-05-14T13:48:43.544Z,102504.00
2019-05-14T13:51:12.397Z,102503.09
2019-05-14T13:53:43.463Z,102498.02
2019-05-14T13:56:14.517Z,102495.70
2019-05-14T13:58:45.473Z,102485.55
2019-05-14T14:01:19.325Z,102486.42
2019-05-14T14:04:04.979Z,102479.64
2019-05-14T14:06:22.269Z,102477.30
2019-05-14T14:08:53.442Z,102467.56
2019-05-14T14:11:24.332Z,102464.33
2019-05-14T14:13:55.322Z,102463.05
2019-05-14T14:16:28.621Z,102462.95
2019-05-14T14:19:03.347Z,102467.19
2019-05-14T14:21:33.255Z,102461.33
2019-05-14T14:24:04.928Z,102455.48
2019-05-14T14:26:39.046Z,102454.56
2019-05-14T14:29:09.360Z,102453.73
2019-05-14T14:31:41.653Z,102452.97
2019-05-14T14:34:13.264Z,102443.63
2019-05-14T14:36:44.576Z,102448.88
2019-05-14T14:39:15.657Z,102445.95
2019-05-14T14:41:48.845Z,102443.08
2019-05-14T14:44:19.374Z,102432.13
2019-05-14T14:46:50.466Z,102426.92
2019-05-14T14:49:21.463Z,102427.11
2019-05-14T14:51:52.513Z,102416.36
2019-05-14T14:54:23.573Z,102420.52
2019-05-14T14:56:54.568Z,102417.39
2019-05-14T14:59:25.641Z,102410.90
2019-05-14T15:01:59.643Z,102416.73
2019-05-14T15:04:29.503Z,102414.43
2019-05-14T15:07:00.596Z,102409.64
2019-05-14T15:09:31.686Z,102412.72
2019-05-14T15:14:33.895Z,102392.95
2019-05-14T15:17:24.082Z,102391.30
2019-05-14T15:19:55.510Z,102388.32
2019-05-14T15:22:30.427Z,102381.46
2019-05-14T15:24:59.224Z,102390.81
2019-05-14T15:27:39.601Z,102384.72
2019-05-14T15:30:11.788Z,102374.56
2019-05-14T15:32:44.388Z,102382.28
2019-05-14T15:35:15.485Z,102386.71
2019-05-14T15:37:48.622Z,102384.91
2019-05-14T15:40:22.392Z,102379.85
2019-05-14T15:47:49.541Z,102371.82
2019-05-14T15:50:20.698Z,102376.75
2019-05-14T15:55:23.937Z,102371.88
2019-05-14T16:00:25.034Z,102373.88
2019-05-14T16:05:24.961Z,102370.67
2019-05-14T16:07:59.390Z,102359.34
2019-05-14T16:15:29.238Z,102355.72
2019-05-14T16:18:18.704Z,102355.12
2019-05-14T16:23:59.297Z,102348.39
2019-05-14T16:26:49.222Z,102343.30
2019-05-14T16:29:36.837Z,102346.89
2019-05-14T16:31:58.237Z,102351.30
2019-05-14T16:34:29.790Z,102343.56
2019-05-14T16:37:02.993Z,102344.67
2019-05-14T16:40:04.842Z,102343.38
2019-05-14T16:45:14.959Z,102353.23
2019-05-14T16:47:46.012Z,102349.07
2019-05-14T16:50:18.965Z,102349.95
2019-05-14T16:52:50.027Z,102345.08
2019-05-14T16:57:51.489Z,102347.56
2019-05-14T17:00:22.707Z,102351.39
2019-05-14T17:05:23.347Z,102341.58
2019-05-14T17:08:28.394Z,102342.28
2019-05-14T17:10:49.214Z,102340.19
2019-05-14T17:13:20.275Z,102346.77
2019-05-14T17:15:51.416Z,102342.08
2019-05-14T17:18:22.499Z,102347.23
2019-05-14T17:23:28.289Z,102343.04
2019-05-14T17:25:59.224Z,102335.69
2019-05-14T17:28:49.164Z,102340.84
2019-05-14T17:31:20.532Z,102336.52
2019-05-14T17:33:52.154Z,102340.70
2019-05-14T17:36:28.261Z,102337.45
2019-05-14T17:38:59.028Z,102341.13
2019-05-14T17:41:49.071Z,102340.77
2019-05-14T17:44:21.768Z,102338.66
2019-05-14T17:46:55.255Z,102338.03
2019-05-14T17:49:28.327Z,102334.13
2019-05-14T17:51:57.961Z,102328.81
2019-05-14T17:54:28.689Z,102322.01
2019-05-14T17:59:30.054Z,102328.95
2019-05-14T18:02:02.220Z,102333.02
2019-05-14T18:04:33.381Z,102327.67
2019-05-14T18:07:04.466Z,102327.59
2019-05-14T18:09:35.483Z,102324.13
2019-05-14T18:12:08.172Z,102320.78
2019-05-14T18:14:39.440Z,102325.03
2019-05-14T18:17:10.428Z,102327.05
2019-05-14T18:19:43.290Z,102328.11
2019-05-14T18:24:53.877Z,102325.36
2019-05-14T18:27:24.909Z,102326.38
2019-05-14T18:29:55.948Z,102329.49
2019-05-14T18:32:26.984Z,102334.20
2019-05-14T18:34:58.280Z,102325.06
2019-05-14T18:37:29.260Z,102328.00
2019-05-14T18:40:00.230Z,102322.06
2019-05-14T18:42:30.990Z,102320.65
2019-05-14T18:45:01.927Z,102320.65
2019-05-14T18:47:32.894Z,102315.23
2019-05-14T18:50:09.310Z,102316.66
2019-05-14T18:52:40.414Z,102318.23
2019-05-14T18:55:11.497Z,102308.52
2019-05-14T18:57:48.540Z,102311.47
2019-05-14T19:00:18.563Z,102307.84
2019-05-14T19:02:51.267Z,102307.72
2019-05-14T19:05:24.778Z,102310.09
2019-05-14T19:07:55.634Z,102311.82
2019-05-14T19:10:28.024Z,102309.33
2019-05-14T19:12:59.508Z,102303.57
2019-05-14T19:15:34.361Z,102304.59
2019-05-14T19:18:08.932Z,102305.80
2019-05-14T19:20:39.383Z,102301.95
2019-05-14T19:23:10.604Z,102300.42
2019-05-14T19:25:48.355Z,102303.33
2019-05-14T19:28:19.681Z,102302.64
2019-05-14T19:30:53.301Z,102301.88
2019-05-14T19:33:24.499Z,102303.72
2019-05-14T19:36:01.376Z,102308.47
2019-05-14T19:38:38.996Z,102307.70
2019-05-14T19:41:09.003Z,102306.91
2019-05-14T19:43:39.060Z,102302.03
2019-05-14T19:46:10.055Z,102309.72
2019-05-14T19:48:48.369Z,102305.44
2019-05-14T19:51:29.979Z,102312.06
2019-05-14T19:54:01.300Z,102310.88
2019-05-14T19:56:51.320Z,102302.76
2019-05-14T19:59:22.248Z,102301.02
2019-05-14T20:01:54.209Z,102301.84
2019-05-14T20:04:25.212Z,102304.61
2019-05-14T20:06:56.255Z,102302.09
2019-05-14T20:09:28.127Z,102305.78
2019-05-14T20:11:59.282Z,102304.17
2019-05-14T20:14:30.351Z,102302.61
2019-05-14T20:17:01.403Z,102308.17
2019-05-14T20:19:53.555Z,102307.28
2019-05-14T20:22:24.500Z,102307.84
2019-05-14T20:25:10.043Z,102309.16
2019-05-14T20:27:41.021Z,102305.22
2019-05-14T20:30:12.080Z,102314.55
2019-05-14T20:32:44.354Z,102313.91
2019-05-14T20:35:28.292Z,102315.11
2019-05-14T20:37:51.739Z,102312.79
2019-05-14T20:40:24.322Z,102312.45
2019-05-14T20:43:03.700Z,102307.73
2019-05-14T20:45:38.964Z,102311.00
2019-05-14T20:48:18.863Z,102307.02
2019-05-14T20:50:52.768Z,102308.52
2019-05-14T20:53:23.910Z,102302.58
2019-05-14T20:55:54.899Z,102308.08
2019-05-14T20:58:27.836Z,102313.47
2019-05-14T21:00:58.504Z,102304.24
2019-05-14T21:03:29.825Z,102302.00
2019-05-14T21:06:00.796Z,102297.99
2019-05-14T21:08:31.771Z,102298.27
2019-05-14T21:11:02.895Z,102300.23
2019-05-14T21:13:33.977Z,102296.98
2019-05-14T21:16:08.447Z,102294.39
2019-05-14T21:18:41.165Z,102293.21
2019-05-14T21:21:11.668Z,102286.89
2019-05-14T21:23:42.564Z,102292.75
2019-05-14T21:26:13.680Z,102283.79
2019-05-14T21:28:44.717Z,102291.07
2019-05-14T21:31:18.030Z,102286.77
2019-05-14T21:33:49.077Z,102285.96
2019-05-14T21:36:20.778Z,102289.16
2019-05-14T21:38:52.568Z,102282.97
2019-05-14T21:41:25.489Z,102285.34
2019-05-14T21:43:58.402Z,102292.50
2019-05-14T21:46:31.710Z,102290.73
2019-05-14T21:49:01.997Z,102296.11
2019-05-14T21:51:32.993Z,102288.11
2019-05-14T21:54:04.004Z,102288.23
2019-05-14T21:56:34.953Z,102287.91
2019-05-14T21:59:06.319Z,102285.44
2019-05-14T22:01:39.380Z,102283.35
2019-05-14T22:04:11.698Z,102281.65
2019-05-14T22:06:42.585Z,102284.36
2019-05-14T22:09:13.603Z,102288.43
2019-05-14T22:11:44.566Z,102283.15
2019-05-14T22:14:15.665Z,102285.02
2019-05-14T22:16:48.624Z,102290.50
2019-05-14T22:19:19.247Z,102290.41
2019-05-14T22:21:50.236Z,102287.69
2019-05-14T22:24:21.538Z,102288.98
2019-05-14T22:26:53.914Z,102288.58
2019-05-14T22:29:25.225Z,102288.69
2019-05-14T22:31:58.590Z,102289.96
2019-05-14T22:34:29.135Z,102294.50
2019-05-14T22:36:59.999Z,102293.27
2019-05-14T22:39:30.940Z,102292.14
2019-05-14T22:42:02.427Z,102294.53
2019-05-14T22:44:33.338Z,102288.83
2019-05-14T22:47:04.215Z,102301.98
2019-05-14T22:49:35.180Z,102293.66
2019-05-14T22:52:08.314Z,102294.70
2019-05-14T22:54:39.005Z,102294.80
2019-05-14T22:57:10.118Z,102296.20
2019-05-14T22:59:41.102Z,102300.27
2019-05-14T23:02:12.089Z,102300.34
2019-05-14T23:04:43.068Z,102300.39
2019-05-14T23:07:14.055Z,102300.52
2019-05-14T23:09:44.970Z,102299.58
2019-05-14T23:12:15.857Z,102302.27
2019-05-14T23:14:48.666Z,102304.56
2019-05-14T23:17:19.867Z,102298.82
2019-05-14T23:19:51.017Z,102298.00
2019-05-14T23:22:22.025Z,102300.70
2019-05-14T23:24:53.018Z,102294.05
2019-05-14T23:27:24.222Z,102295.42
2019-05-14T23:29:58.729Z,102295.47
2019-05-14T23:32:29.993Z,102291.06
2019-05-14T23:35:01.098Z,102290.25
2019-05-14T23:37:32.190Z,102286.68
2019-05-14T23:40:03.217Z,102283.57
2019-05-14T23:42:34.408Z,102287.27
2019-05-14T23:45:08.239Z,102283.39
2019-05-14T23:47:39.374Z,102284.30
2019-05-14T23:50:10.453Z,102278.54
2019-05-14T23:52:41.412Z,102277.70
2019-05-14T23:55:12.301Z,102284.04
2019-05-14T23:57:43.368Z,102283.21
